Terminal Aerodrome Forecast
Issued by NWS Cleveland, OH

Home | Current Version | Previous Version | Graphics & Text | Print | Product List | Glossary Off
Versions: 1 2 3 4 5 6 7 8 9 10 11 12 13 14 15 16 17 18 19 20

000
FTUS41 KCLE 011700
TAFTOL
TAF
KTOL 011722Z 0118/0218 20012G20KT P6SM BKN025
      TEMPO 0118/0119 SCT025 BKN035
     FM011900 22012G20KT P6SM BKN035
      TEMPO 0121/0124 VRB15G30KT 3SM TSRA OVC025CB
     FM020900 23010KT 5SM -SHRA OVC025
     FM021400 27010KT P6SM BKN035=

USA.gov is the U.S. government's official web portal to all federal, state and local government web resources and services.